createdAt,value
2019-04-04T00:01:48.828Z,40.04
2019-04-04T00:04:21.907Z,40.28
2019-04-04T00:06:51.825Z,40.49
2019-04-04T00:09:22.309Z,40.79
2019-04-04T00:11:53.199Z,40.57
2019-04-04T00:14:23.837Z,40.72
2019-04-04T00:16:54.682Z,40.56
2019-04-04T00:19:25.410Z,41.35
2019-04-04T00:21:56.135Z,41.23
2019-04-04T00:24:26.984Z,41.38
2019-04-04T00:26:57.923Z,41.24
2019-04-04T00:29:28.601Z,41.56
2019-04-04T00:31:59.423Z,41.32
2019-04-04T00:34:30.111Z,41.76
2019-04-04T00:37:00.649Z,41.77
2019-04-04T00:39:32.363Z,41.47
2019-04-04T00:42:03.180Z,41.81
2019-04-04T00:44:33.853Z,42.01
2019-04-04T00:47:04.599Z,42.02
2019-04-04T00:49:36.139Z,42.20
2019-04-04T00:52:10.134Z,41.82
2019-04-04T00:54:39.224Z,42.12
2019-04-04T00:57:10.020Z,41.90
2019-04-04T00:59:41.573Z,41.76
2019-04-04T01:02:12.340Z,42.12
2019-04-04T01:04:42.833Z,42.26
2019-04-04T01:07:13.284Z,42.43
2019-04-04T01:09:43.781Z,42.75
2019-04-04T01:12:14.426Z,42.76
2019-04-04T01:14:45.098Z,43.42
2019-04-04T01:17:15.887Z,43.14
2019-04-04T01:19:48.712Z,43.11
2019-04-04T01:22:18.971Z,43.02
2019-04-04T01:24:49.532Z,43.26
2019-04-04T01:27:20.271Z,43.66
2019-04-04T01:29:50.874Z,43.23
2019-04-04T01:32:21.529Z,43.76
2019-04-04T01:34:52.747Z,43.48
2019-04-04T01:37:26.897Z,43.71
2019-04-04T01:39:55.825Z,44.32
2019-04-04T01:42:26.592Z,44.48
2019-04-04T01:44:57.095Z,44.47
2019-04-04T01:47:27.800Z,44.67
2019-04-04T01:49:58.098Z,44.43
2019-04-04T01:52:28.889Z,44.84
2019-04-04T01:55:02.954Z,45.03
2019-04-04T01:57:31.756Z,45.12
2019-04-04T02:00:02.020Z,45.44
2019-04-04T02:02:32.975Z,45.57
2019-04-04T02:05:03.397Z,45.54
2019-04-04T02:07:33.810Z,45.99
2019-04-04T02:10:05.440Z,46.02
2019-04-04T02:12:38.517Z,46.00
2019-04-04T02:15:09.485Z,45.94
2019-04-04T02:17:39.885Z,46.14
2019-04-04T02:20:10.812Z,47.10
2019-04-04T02:22:41.626Z,47.00
2019-04-04T02:25:12.306Z,46.82
2019-04-04T02:27:42.814Z,46.52
2019-04-04T02:30:16.020Z,47.08
2019-04-04T02:32:46.713Z,47.07
2019-04-04T02:35:17.212Z,47.21
2019-04-04T02:37:49.980Z,46.94
2019-04-04T02:40:20.245Z,47.30
2019-04-04T02:42:54.063Z,47.73
2019-04-04T02:45:22.867Z,47.46
2019-04-04T02:47:53.203Z,47.65
2019-04-04T02:50:23.986Z,48.42
2019-04-04T02:52:54.908Z,48.52
2019-04-04T02:55:29.808Z,48.21
2019-04-04T02:57:57.454Z,48.11
2019-04-04T03:00:28.250Z,48.20
2019-04-04T03:02:58.742Z,48.36
2019-04-04T03:05:29.330Z,48.79
2019-04-04T03:08:02.981Z,49.09
2019-04-04T03:10:31.863Z,49.03
2019-04-04T03:13:02.435Z,49.21
2019-04-04T03:15:32.690Z,49.11
2019-04-04T03:18:05.220Z,49.76
2019-04-04T03:20:35.854Z,49.87
2019-04-04T03:23:06.177Z,50.05
2019-04-04T03:25:36.626Z,50.05
2019-04-04T03:28:07.443Z,50.17
2019-04-04T03:30:38.782Z,50.57
2019-04-04T03:33:09.220Z,50.48
2019-04-04T03:35:39.883Z,50.52
2019-04-04T03:38:10.734Z,51.03
2019-04-04T03:40:42.256Z,51.08
2019-04-04T03:43:15.840Z,51.28
2019-04-04T03:45:44.841Z,51.08
2019-04-04T03:48:17.747Z,51.40
2019-04-04T03:50:47.627Z,50.90
2019-04-04T03:53:19.351Z,50.92
2019-04-04T03:55:49.965Z,50.54
2019-04-04T03:58:20.550Z,50.86
2019-04-04T04:00:50.851Z,50.89
2019-04-04T04:03:22.748Z,51.03
2019-04-04T04:05:54.077Z,50.91
2019-04-04T04:08:24.407Z,50.83
2019-04-04T04:10:55.170Z,51.47
2019-04-04T04:13:25.558Z,51.09
2019-04-04T04:15:55.920Z,50.90
2019-04-04T04:18:26.246Z,51.01
2019-04-04T04:20:56.542Z,51.58
2019-04-04T04:23:27.259Z,51.35
2019-04-04T04:25:57.683Z,51.13
2019-04-04T04:28:28.082Z,51.32
2019-04-04T04:30:58.807Z,51.93
2019-04-04T04:33:30.076Z,52.37
2019-04-04T04:36:00.563Z,51.94
2019-04-04T04:38:31.150Z,52.22
2019-04-04T04:41:08.692Z,52.32
2019-04-04T04:43:38.996Z,51.90
2019-04-04T04:46:09.371Z,51.86
2019-04-04T04:48:40.176Z,51.95
2019-04-04T04:51:11.991Z,51.98
2019-04-04T04:53:42.824Z,51.33
2019-04-04T04:56:13.510Z,51.36
2019-04-04T04:58:43.820Z,51.73
2019-04-04T05:01:14.128Z,51.68
2019-04-04T05:03:44.638Z,52.74
2019-04-04T05:06:14.919Z,52.91
2019-04-04T05:08:45.243Z,52.49
2019-04-04T05:11:16.830Z,52.38
2019-04-04T05:13:48.190Z,52.33
2019-04-04T05:16:18.579Z,52.43
2019-04-04T05:18:48.915Z,51.72
2019-04-04T05:21:24.767Z,52.24
2019-04-04T05:23:51.531Z,51.70
2019-04-04T05:26:21.840Z,51.40
2019-04-04T05:28:53.460Z,50.93
2019-04-04T05:31:24.380Z,50.89
2019-04-04T05:33:54.927Z,50.47
2019-04-04T05:36:25.211Z,49.94
2019-04-04T05:38:55.952Z,50.60
2019-04-04T05:41:27.398Z,49.99
2019-04-04T05:43:58.659Z,49.61
2019-04-04T05:46:28.940Z,50.22
2019-04-04T05:49:00.721Z,49.62
2019-04-04T05:51:31.345Z,49.35
2019-04-04T05:54:01.839Z,48.95
2019-04-04T05:56:32.130Z,49.03
2019-04-04T05:59:02.839Z,49.03
2019-04-04T06:01:35.292Z,48.62
2019-04-04T06:04:05.610Z,49.03
2019-04-04T06:06:36.153Z,48.88
2019-04-04T06:09:14.708Z,48.22
2019-04-04T06:11:44.109Z,48.10
2019-04-04T06:14:16.251Z,47.95
2019-04-04T06:16:46.499Z,47.85
2019-04-04T06:19:17.179Z,47.53
2019-04-04T06:21:49.638Z,47.37
2019-04-04T06:24:20.060Z,46.91
2019-04-04T06:26:50.714Z,47.21
2019-04-04T06:29:21.145Z,46.64
2019-04-04T06:31:51.553Z,46.10
2019-04-04T06:34:24.062Z,45.73
2019-04-04T06:36:54.270Z,46.41
2019-04-04T06:39:25.806Z,45.59
2019-04-04T06:41:56.067Z,45.37
2019-04-04T06:44:26.928Z,45.13
2019-04-04T06:46:57.262Z,45.06
2019-04-04T06:49:28.971Z,44.63
2019-04-04T06:51:59.830Z,44.51
2019-04-04T06:54:30.167Z,43.89
2019-04-04T06:57:01.571Z,43.72
2019-04-04T06:59:33.823Z,43.25
2019-04-04T07:02:05.336Z,43.08
2019-04-04T07:04:36.780Z,42.49
2019-04-04T07:07:07.492Z,42.95
2019-04-04T07:09:38.071Z,41.91
2019-04-04T07:12:20.363Z,43.73
2019-04-04T07:14:45.901Z,43.03
2019-04-04T07:17:16.096Z,42.65
2019-04-04T07:19:46.284Z,42.74
2019-04-04T07:22:20.481Z,41.92
2019-04-04T07:24:50.912Z,42.54
2019-04-04T07:27:21.288Z,41.76
2019-04-04T07:29:51.691Z,40.74
2019-04-04T07:32:21.998Z,40.70
2019-04-04T07:34:52.582Z,41.98
2019-04-04T07:37:23.271Z,41.41
2019-04-04T07:39:53.707Z,40.58
2019-04-04T07:42:25.126Z,40.16
2019-04-04T07:44:56.029Z,39.67
2019-04-04T07:47:27.302Z,39.89
2019-04-04T07:49:57.846Z,40.10
2019-04-04T07:52:28.507Z,39.88
2019-04-04T07:54:59.075Z,39.99
2019-04-04T07:57:30.413Z,39.62
2019-04-04T08:00:00.868Z,39.36
2019-04-04T08:02:31.875Z,38.37
2019-04-04T08:05:02.279Z,38.33
2019-04-04T08:07:33.637Z,38.25
2019-04-04T08:10:03.993Z,38.16
2019-04-04T08:12:34.683Z,37.81
2019-04-04T08:17:55.033Z,36.25
2019-04-04T08:20:25.375Z,36.03
2019-04-04T08:22:55.797Z,35.99
2019-04-04T08:25:26.525Z,36.95
2019-04-04T08:27:57.005Z,36.94
2019-04-04T08:30:27.341Z,35.78
2019-04-04T08:32:57.741Z,35.04
2019-04-04T08:35:28.295Z,35.54
2019-04-04T08:37:58.756Z,35.18
2019-04-04T08:40:29.047Z,34.99
2019-04-04T08:42:59.678Z,34.52
2019-04-04T08:45:30.579Z,34.07
2019-04-04T08:48:00.915Z,34.10
2019-04-04T08:50:31.380Z,34.48
2019-04-04T08:53:01.827Z,33.87
2019-04-04T08:55:32.113Z,33.74
2019-04-04T08:58:02.744Z,33.58
2019-04-04T09:00:33.162Z,32.83
2019-04-04T09:03:04.138Z,31.94
2019-04-04T09:05:34.881Z,31.50
2019-04-04T09:08:05.369Z,31.54
2019-04-04T09:10:36.219Z,31.68
2019-04-04T09:13:06.862Z,31.73
2019-04-04T09:15:37.341Z,31.67
2019-04-04T09:18:07.804Z,31.64
2019-04-04T09:20:38.591Z,32.22
2019-04-04T09:23:08.897Z,32.35
2019-04-04T09:25:40.848Z,31.55
2019-04-04T09:28:11.892Z,30.71
2019-04-04T09:30:42.235Z,29.97
2019-04-04T09:33:13.022Z,30.06
2019-04-04T09:35:43.360Z,30.13
2019-04-04T09:38:13.784Z,30.25
2019-04-04T09:40:44.540Z,30.86
2019-04-04T09:43:14.884Z,30.20
2019-04-04T09:45:45.346Z,30.70
2019-04-04T09:48:15.802Z,29.88
2019-04-04T09:50:46.144Z,29.55
2019-04-04T09:53:16.454Z,29.79
2019-04-04T09:55:47.211Z,28.45
2019-04-04T09:58:17.757Z,28.45
2019-04-04T10:00:50.517Z,29.34
2019-04-04T10:03:21.270Z,28.82
2019-04-04T10:05:52.552Z,28.09
2019-04-04T10:08:23.244Z,27.39
2019-04-04T10:10:53.660Z,26.21
2019-04-04T10:13:24.045Z,26.21
2019-04-04T10:15:56.131Z,27.92
2019-04-04T10:18:26.443Z,27.92
2019-04-04T10:20:56.791Z,27.03
2019-04-04T10:23:27.611Z,27.01
2019-04-04T10:25:58.161Z,27.31
2019-04-04T10:28:28.478Z,25.60
2019-04-04T10:30:59.209Z,25.60
2019-04-04T10:33:29.880Z,24.88
2019-04-04T10:36:00.226Z,24.68
2019-04-04T10:38:30.755Z,24.51
2019-04-04T10:41:01.112Z,24.79
2019-04-04T10:43:31.754Z,24.04
2019-04-04T10:46:02.531Z,22.68
2019-04-04T10:48:32.803Z,22.43
2019-04-04T10:51:03.482Z,22.80
2019-04-04T10:53:35.219Z,22.84
2019-04-04T10:56:05.556Z,22.59
2019-04-04T10:58:36.113Z,21.99
2019-04-04T11:01:06.837Z,22.23
2019-04-04T11:03:37.186Z,21.84
2019-04-04T11:06:07.537Z,22.07
2019-04-04T11:08:38.246Z,22.42
2019-04-04T11:11:08.695Z,22.65
2019-04-04T11:13:39.301Z,22.47
2019-04-04T11:16:10.100Z,22.12
2019-04-04T11:18:40.448Z,21.74
2019-04-04T11:21:10.784Z,21.65
2019-04-04T11:23:41.476Z,21.60
2019-04-04T11:26:12.091Z,21.92
2019-04-04T11:28:42.444Z,21.73
2019-04-04T11:31:13.163Z,22.59
2019-04-04T11:33:43.943Z,22.30
2019-04-04T11:36:14.236Z,22.05
2019-04-04T11:38:44.679Z,23.58
2019-04-04T11:41:15.111Z,22.87
2019-04-04T11:43:45.733Z,22.28
2019-04-04T11:46:16.301Z,22.22
2019-04-04T11:48:46.623Z,22.36
2019-04-04T11:51:17.288Z,22.52
2019-04-04T11:53:47.966Z,22.97
2019-04-04T11:56:18.295Z,23.80
2019-04-04T11:58:48.883Z,24.09
2019-04-04T12:01:20.039Z,25.12
2019-04-04T12:03:50.333Z,25.32
2019-04-04T12:06:20.671Z,24.96
2019-04-04T12:08:51.201Z,25.07
2019-04-04T12:11:22.755Z,25.48
2019-04-04T12:13:53.328Z,26.23
2019-04-04T12:16:23.614Z,25.92
2019-04-04T12:18:54.041Z,27.12
2019-04-04T12:21:24.828Z,26.27
2019-04-04T12:23:55.127Z,26.57
2019-04-04T12:26:25.517Z,26.93
2019-04-04T12:28:56.214Z,26.77
2019-04-04T12:31:26.550Z,26.73
2019-04-04T12:33:56.857Z,27.03
2019-04-04T12:36:27.628Z,27.43
2019-04-04T12:38:58.139Z,27.50
2019-04-04T12:41:28.455Z,28.01
2019-04-04T12:43:59.083Z,28.70
2019-04-04T12:46:29.425Z,31.64
2019-04-04T12:49:00.240Z,32.59
2019-04-04T12:51:30.525Z,32.78
2019-04-04T12:54:00.928Z,36.06
2019-04-04T12:56:31.681Z,37.76
2019-04-04T12:59:02.200Z,38.45
2019-04-04T13:01:32.488Z,39.13
2019-04-04T13:04:03.340Z,39.43
2019-04-04T13:06:34.006Z,40.01
2019-04-04T13:09:05.895Z,41.68
2019-04-04T13:11:36.327Z,44.70
2019-04-04T13:14:06.755Z,45.90
2019-04-04T13:16:37.046Z,46.32
2019-04-04T13:19:07.682Z,46.19
2019-04-04T13:21:37.976Z,46.36
2019-04-04T13:24:08.647Z,48.34
2019-04-04T13:26:39.316Z,48.90
2019-04-04T13:29:09.622Z,51.47
2019-04-04T13:31:40.274Z,54.19
2019-04-04T13:34:11.064Z,52.27
2019-04-04T13:36:41.459Z,50.32
2019-04-04T13:39:12.954Z,50.62
2019-04-04T13:41:43.719Z,50.87
2019-04-04T13:44:14.110Z,52.04
2019-04-04T13:46:44.617Z,53.74
2019-04-04T13:49:15.207Z,53.47
2019-04-04T13:51:45.942Z,53.20
2019-04-04T13:54:16.645Z,53.61
2019-04-04T13:56:46.978Z,53.49
2019-04-04T13:59:17.416Z,52.84
2019-04-04T14:01:48.087Z,52.17
2019-04-04T14:04:20.306Z,52.59
2019-04-04T14:06:50.436Z,50.46
2019-04-04T14:09:21.159Z,50.00
2019-04-04T14:11:51.438Z,48.28
2019-04-04T14:14:21.789Z,47.84
2019-04-04T14:16:52.488Z,47.28
2019-04-04T14:19:23.835Z,45.15
2019-04-04T14:21:54.519Z,42.13
2019-04-04T14:24:24.850Z,35.56
2019-04-04T14:26:55.266Z,35.10
2019-04-04T14:29:27.622Z,35.30
2019-04-04T14:31:57.728Z,34.30
2019-04-04T14:34:28.193Z,34.04
2019-04-04T14:36:58.720Z,34.35
2019-04-04T14:39:30.049Z,33.59
2019-04-04T14:42:00.356Z,32.37
2019-04-04T14:44:30.837Z,32.37
2019-04-04T14:47:01.488Z,31.07
2019-04-04T14:49:31.780Z,31.46
2019-04-04T14:52:02.578Z,30.73
2019-04-04T14:54:32.870Z,30.73
2019-04-04T14:57:03.434Z,30.76
2019-04-04T14:59:33.965Z,30.86
2019-04-04T15:02:04.308Z,31.05
2019-04-04T15:04:34.818Z,30.91
2019-04-04T15:07:05.526Z,30.91
2019-04-04T15:09:35.818Z,30.64
2019-04-04T15:12:06.237Z,30.67
2019-04-04T15:14:36.811Z,30.67
2019-04-04T15:17:07.175Z,30.80
2019-04-04T15:19:37.882Z,30.65
2019-04-04T15:22:08.763Z,30.81
2019-04-04T15:24:39.207Z,31.17
2019-04-04T15:27:08.670Z,30.76
2019-04-04T15:29:39.348Z,30.62
2019-04-04T15:32:09.795Z,30.62
2019-04-04T15:34:40.124Z,30.68
2019-04-04T15:37:10.886Z,31.01
2019-04-04T15:39:41.195Z,30.68
2019-04-04T15:42:11.631Z,30.68
2019-04-04T15:44:42.459Z,31.33
2019-04-04T15:47:13.062Z,31.09
2019-04-04T15:49:43.352Z,31.43
2019-04-04T15:52:14.000Z,31.51
2019-04-04T15:54:44.648Z,32.11
2019-04-04T15:57:15.180Z,32.48
2019-04-04T15:59:45.600Z,32.73
2019-04-04T16:02:16.022Z,32.49
2019-04-04T16:04:46.668Z,33.84
2019-04-04T16:07:17.186Z,33.54
2019-04-04T16:09:47.466Z,33.95
2019-04-04T16:12:18.084Z,33.99
2019-04-04T16:14:48.827Z,34.61
2019-04-04T16:17:19.240Z,34.65
2019-04-04T16:19:49.799Z,34.94
2019-04-04T16:22:20.490Z,35.04
2019-04-04T16:24:50.886Z,35.27
2019-04-04T16:27:21.422Z,35.61
2019-04-04T16:29:51.906Z,35.78
2019-04-04T16:32:22.624Z,35.86
2019-04-04T16:34:53.412Z,35.92
2019-04-04T16:37:23.704Z,35.99
2019-04-04T16:39:54.128Z,36.41
2019-04-04T16:42:24.907Z,36.47
2019-04-04T16:44:55.242Z,36.93
2019-04-04T16:47:25.537Z,37.45
2019-04-04T16:49:56.004Z,37.26
2019-04-04T16:52:26.367Z,37.87
2019-04-04T16:54:56.656Z,38.20
2019-04-04T16:57:27.333Z,38.51
2019-04-04T16:59:58.131Z,39.10
2019-04-04T17:02:28.508Z,39.52
2019-04-04T17:04:58.806Z,39.64
2019-04-04T17:07:29.311Z,39.87
2019-04-04T17:10:02.189Z,40.05
2019-04-04T17:12:32.853Z,40.07
2019-04-04T17:15:03.222Z,40.84
2019-04-04T17:17:33.926Z,41.19
2019-04-04T17:20:04.891Z,41.45
2019-04-04T17:22:35.810Z,41.39
2019-04-04T17:25:06.898Z,42.17
2019-04-04T17:27:37.762Z,42.28
2019-04-04T17:30:09.565Z,42.38
2019-04-04T17:32:40.060Z,42.10
2019-04-04T17:35:10.844Z,42.77
2019-04-04T17:37:41.434Z,43.11
2019-04-04T17:40:14.216Z,43.56
2019-04-04T17:42:45.293Z,43.43
2019-04-04T17:45:17.748Z,43.59
2019-04-04T17:47:48.888Z,43.36
2019-04-04T17:50:20.226Z,43.65
2019-04-04T17:52:50.918Z,43.54
2019-04-04T17:55:21.912Z,43.56
2019-04-04T17:57:52.451Z,44.05
2019-04-04T18:00:25.348Z,44.18
2019-04-04T18:02:55.831Z,44.42
2019-04-04T18:05:26.146Z,44.30
2019-04-04T18:07:57.139Z,44.36
2019-04-04T18:10:27.543Z,44.86
2019-04-04T18:12:58.269Z,44.54
2019-04-04T18:15:28.954Z,44.28
2019-04-04T18:17:59.562Z,44.38
2019-04-04T18:20:30.022Z,44.60
2019-04-04T18:23:00.859Z,44.46
2019-04-04T18:25:31.282Z,44.65
2019-04-04T18:28:01.620Z,44.59
2019-04-04T18:30:32.349Z,45.29
2019-04-04T18:33:02.671Z,45.17
2019-04-04T18:35:32.986Z,45.30
2019-04-04T18:38:03.699Z,45.16
2019-04-04T18:40:34.054Z,44.97
2019-04-04T18:43:04.645Z,45.25
2019-04-04T18:45:34.991Z,45.20
2019-04-04T18:48:05.618Z,45.34
2019-04-04T18:50:36.475Z,45.25
2019-04-04T18:53:06.851Z,45.33
2019-04-04T18:55:37.709Z,45.08
2019-04-04T18:58:08.671Z,45.16
2019-04-04T19:00:39.169Z,44.78
2019-04-04T19:03:09.437Z,44.80
2019-04-04T19:05:40.579Z,44.99
2019-04-04T19:08:11.396Z,45.56
2019-04-04T19:10:41.956Z,45.52
2019-04-04T19:13:12.676Z,45.43
2019-04-04T19:15:42.940Z,45.30
2019-04-04T19:18:13.733Z,45.65
2019-04-04T19:20:44.230Z,46.16
2019-04-04T19:23:14.731Z,45.95
2019-04-04T19:25:45.332Z,46.66
2019-04-04T19:28:15.792Z,47.00
2019-04-04T19:30:46.275Z,46.99
2019-04-04T19:33:16.967Z,46.86
2019-04-04T19:35:47.653Z,47.37
2019-04-04T19:38:19.190Z,47.36
2019-04-04T19:40:49.641Z,47.23
2019-04-04T19:43:20.213Z,47.50
2019-04-04T19:45:50.492Z,47.47
2019-04-04T19:48:20.824Z,47.52
2019-04-04T19:50:52.073Z,47.84
2019-04-04T19:53:22.374Z,47.86
2019-04-04T19:55:52.762Z,48.07
2019-04-04T19:58:23.702Z,48.00
2019-04-04T20:00:54.033Z,47.93
2019-04-04T20:03:24.358Z,48.11
2019-04-04T20:05:55.046Z,48.03
2019-04-04T20:08:25.813Z,47.99
2019-04-04T20:10:56.095Z,47.98
2019-04-04T20:13:31.176Z,48.49
2019-04-04T20:15:58.940Z,48.88
2019-04-04T20:18:29.772Z,49.26
2019-04-04T20:21:00.225Z,48.76
2019-04-04T20:23:30.584Z,48.87
2019-04-04T20:26:01.321Z,49.22
2019-04-04T20:28:31.716Z,49.53
2019-04-04T20:31:02.177Z,49.41
2019-04-04T20:33:32.984Z,49.40
2019-04-04T20:36:03.746Z,49.54
2019-04-04T20:38:34.244Z,49.97
2019-04-04T20:41:04.672Z,49.65
2019-04-04T20:43:43.335Z,50.01
2019-04-04T20:46:07.612Z,50.27
2019-04-04T20:48:38.209Z,50.14
2019-04-04T20:51:08.565Z,50.16
2019-04-04T20:53:39.392Z,49.93
2019-04-04T20:56:09.932Z,50.34
2019-04-04T20:58:40.520Z,49.88
2019-04-04T21:01:10.853Z,50.22
2019-04-04T21:03:41.819Z,50.11
2019-04-04T21:06:12.106Z,50.25
2019-04-04T21:08:43.694Z,49.85
2019-04-04T21:11:14.345Z,49.78
2019-04-04T21:13:55.447Z,50.61
2019-04-04T21:16:17.946Z,50.42
2019-04-04T21:18:48.782Z,50.26
2019-04-04T21:21:20.156Z,50.16
2019-04-04T21:23:50.956Z,50.14
2019-04-04T21:26:21.224Z,49.86
2019-04-04T21:28:51.579Z,50.02
2019-04-04T21:31:22.269Z,50.04
2019-04-04T21:33:52.769Z,50.00
2019-04-04T21:36:23.059Z,50.32
2019-04-04T21:38:53.780Z,51.92
2019-04-04T21:41:24.244Z,53.29
2019-04-04T21:43:54.563Z,53.35
2019-04-04T21:46:25.245Z,54.43
2019-04-04T21:48:56.013Z,56.07
2019-04-04T21:51:26.293Z,56.27
2019-04-04T21:53:56.980Z,56.93
2019-04-04T21:56:27.681Z,58.33
2019-04-04T21:58:58.003Z,57.39
2019-04-04T22:01:28.442Z,56.36
2019-04-04T22:03:59.107Z,56.46
2019-04-04T22:06:30.493Z,56.94
2019-04-04T22:09:00.804Z,56.16
2019-04-04T22:11:33.154Z,57.61
2019-04-04T22:14:03.414Z,58.27
2019-04-04T22:16:35.171Z,59.02
2019-04-04T22:19:05.926Z,59.57
2019-04-04T22:21:36.348Z,58.95
2019-04-04T22:24:06.730Z,59.29
2019-04-04T22:26:37.051Z,58.25
2019-04-04T22:29:07.630Z,58.58
2019-04-04T22:31:38.212Z,57.63
2019-04-04T22:34:08.539Z,57.65
2019-04-04T22:36:38.862Z,58.30
2019-04-04T22:39:09.648Z,58.93
2019-04-04T22:41:40.174Z,59.08
2019-04-04T22:44:11.623Z,59.35
2019-04-04T22:46:42.328Z,60.00
2019-04-04T22:49:13.013Z,61.88
2019-04-04T22:51:43.344Z,62.03
2019-04-04T22:54:14.069Z,62.48
2019-04-04T22:56:44.526Z,62.99
2019-04-04T22:59:15.164Z,62.17
2019-04-04T23:01:45.677Z,62.24
2019-04-04T23:04:15.956Z,61.28
2019-04-04T23:06:46.649Z,60.71
2019-04-04T23:09:17.334Z,60.19
2019-04-04T23:11:47.656Z,59.66
2019-04-04T23:14:18.313Z,59.31
2019-04-04T23:16:49.738Z,59.42
2019-04-04T23:19:20.076Z,59.12
2019-04-04T23:21:50.452Z,59.17
2019-04-04T23:24:21.214Z,59.99
2019-04-04T23:26:51.685Z,59.31
2019-04-04T23:29:22.490Z,59.12
2019-04-04T23:31:52.995Z,59.26
2019-04-04T23:34:23.680Z,59.36
2019-04-04T23:36:54.357Z,59.01
2019-04-04T23:39:24.679Z,58.83
2019-04-04T23:41:55.086Z,58.78
2019-04-04T23:44:25.690Z,59.27
2019-04-04T23:46:56.009Z,59.38
2019-04-04T23:49:26.297Z,59.87
2019-04-04T23:51:57.021Z,59.42
2019-04-04T23:54:28.390Z,61.96
2019-04-04T23:56:58.672Z,63.67
2019-04-04T23:59:29.334Z,62.20
